createdAt,value
2017-12-10T00:01:30.798Z,3.80
2017-12-10T00:04:05.810Z,3.80
2017-12-10T00:06:39.955Z,3.70
2017-12-10T00:09:14.356Z,3.70
2017-12-10T00:11:48.417Z,3.70
2017-12-10T00:14:22.738Z,3.70
2017-12-10T00:16:56.748Z,3.60
2017-12-10T00:19:30.729Z,3.50
2017-12-10T00:22:05.368Z,3.40
2017-12-10T00:24:39.678Z,3.40
2017-12-10T00:27:13.592Z,3.40
2017-12-10T00:29:48.431Z,3.40
2017-12-10T00:32:22.520Z,3.40
2017-12-10T00:34:57.766Z,3.50
2017-12-10T00:37:32.005Z,3.50
2017-12-10T00:40:06.070Z,3.50
2017-12-10T00:42:40.140Z,3.50
2017-12-10T00:45:14.175Z,3.50
2017-12-10T00:47:47.954Z,3.50
2017-12-10T00:50:22.020Z,3.50
2017-12-10T00:52:56.524Z,3.50
2017-12-10T00:55:30.673Z,3.50
2017-12-10T00:58:05.194Z,3.50
2017-12-10T01:00:39.689Z,3.50
2017-12-10T01:03:13.680Z,3.50
2017-12-10T01:05:48.431Z,3.50
2017-12-10T01:08:23.794Z,3.50
2017-12-10T01:10:57.886Z,3.50
2017-12-10T01:13:32.009Z,3.40
2017-12-10T01:16:07.082Z,3.40
2017-12-10T01:18:41.490Z,3.40
2017-12-10T01:21:16.594Z,3.40
2017-12-10T01:23:50.689Z,3.40
2017-12-10T01:26:24.566Z,3.40
2017-12-10T01:28:58.398Z,3.50
2017-12-10T01:31:32.358Z,3.50
2017-12-10T01:34:06.144Z,3.40
2017-12-10T01:36:39.971Z,3.50
2017-12-10T01:39:13.967Z,3.50
2017-12-10T01:41:48.574Z,3.40
2017-12-10T01:44:22.801Z,3.40
2017-12-10T01:46:56.753Z,3.40
2017-12-10T01:49:30.816Z,3.30
2017-12-10T01:52:05.166Z,3.30
2017-12-10T01:54:38.836Z,3.30
2017-12-10T01:57:14.000Z,3.30
2017-12-10T01:59:47.681Z,3.50
2017-12-10T02:02:21.922Z,3.30
2017-12-10T02:04:56.528Z,3.20
2017-12-10T02:07:31.763Z,3.30
2017-12-10T02:10:06.823Z,3.20
2017-12-10T02:12:41.068Z,3.20
2017-12-10T02:15:15.925Z,3.20
2017-12-10T02:17:50.278Z,3.20
2017-12-10T02:20:24.411Z,3.20
2017-12-10T02:22:58.935Z,3.20
2017-12-10T02:25:32.930Z,3.10
2017-12-10T02:28:07.353Z,3.10
2017-12-10T02:30:41.182Z,3.10
2017-12-10T02:33:15.977Z,3.10
2017-12-10T02:35:49.910Z,3.20
2017-12-10T02:38:24.572Z,3.10
2017-12-10T02:40:58.812Z,3.10
2017-12-10T02:43:32.887Z,3.10
2017-12-10T02:46:07.563Z,3.20
2017-12-10T02:51:17.630Z,3.20
2017-12-10T02:53:51.527Z,3.20
2017-12-10T02:56:26.023Z,3.20
2017-12-10T02:59:00.081Z,3.30
2017-12-10T03:01:34.453Z,3.30
2017-12-10T03:04:08.570Z,3.30
2017-12-10T03:06:42.374Z,3.30
2017-12-10T03:09:16.461Z,3.30
2017-12-10T03:11:51.346Z,3.30
2017-12-10T03:14:26.180Z,3.30
2017-12-10T03:17:00.397Z,3.30
2017-12-10T03:19:35.295Z,3.30
2017-12-10T03:22:09.646Z,3.30
2017-12-10T03:24:43.841Z,3.30
2017-12-10T03:27:17.752Z,3.30
2017-12-10T03:29:51.598Z,3.30
2017-12-10T03:32:25.839Z,3.30
2017-12-10T03:34:59.803Z,3.30
2017-12-10T03:37:34.323Z,3.30
2017-12-10T03:40:08.100Z,3.20
2017-12-10T03:42:42.944Z,3.30
2017-12-10T03:45:17.187Z,3.30
2017-12-10T03:47:51.821Z,3.30
2017-12-10T03:50:27.778Z,3.40
2017-12-10T03:53:02.386Z,3.30
2017-12-10T03:55:36.301Z,3.30
2017-12-10T03:58:10.185Z,3.30
2017-12-10T04:00:44.038Z,3.30
2017-12-10T04:03:18.068Z,3.30
2017-12-10T04:05:51.990Z,3.30
2017-12-10T04:08:25.940Z,3.40
2017-12-10T04:11:00.062Z,3.30
2017-12-10T04:13:33.952Z,3.30
2017-12-10T04:16:07.769Z,3.40
2017-12-10T04:18:42.660Z,3.30
2017-12-10T04:21:16.905Z,3.30
2017-12-10T04:23:51.137Z,4.40
2017-12-10T04:26:25.310Z,3.30
2017-12-10T04:28:59.425Z,3.30
2017-12-10T04:31:34.172Z,3.30
2017-12-10T04:34:08.274Z,3.30
2017-12-10T04:36:42.533Z,3.30
2017-12-10T04:39:16.696Z,3.30
2017-12-10T04:41:51.012Z,3.30
2017-12-10T04:44:25.131Z,3.30
2017-12-10T04:49:22.733Z,3.30
2017-12-10T04:51:57.349Z,3.20
2017-12-10T04:54:31.343Z,3.20
2017-12-10T04:57:05.933Z,3.20
2017-12-10T04:59:39.885Z,3.20
2017-12-10T05:02:13.635Z,3.20
2017-12-10T05:04:48.296Z,3.20
2017-12-10T05:07:22.329Z,3.20
2017-12-10T05:09:57.844Z,3.20
2017-12-10T05:12:31.680Z,3.20
2017-12-10T05:15:05.338Z,3.20
2017-12-10T05:17:39.409Z,3.10
2017-12-10T05:20:13.069Z,3.10
2017-12-10T05:22:46.911Z,3.10
2017-12-10T05:25:20.690Z,3.10
2017-12-10T05:27:55.130Z,3.10
2017-12-10T05:30:29.029Z,3.00
2017-12-10T05:33:03.554Z,3.00
2017-12-10T05:35:37.557Z,3.00
2017-12-10T05:38:11.343Z,3.00
2017-12-10T05:40:45.992Z,3.00
2017-12-10T05:43:20.438Z,2.90
2017-12-10T05:45:54.938Z,2.90
2017-12-10T05:48:28.678Z,2.80
2017-12-10T05:51:02.579Z,2.80
2017-12-10T05:53:36.959Z,2.90
2017-12-10T05:56:11.759Z,2.90
2017-12-10T05:58:45.753Z,2.90
2017-12-10T06:01:20.128Z,2.90
2017-12-10T06:03:54.281Z,2.90
2017-12-10T06:06:28.144Z,2.80
2017-12-10T06:09:02.519Z,2.80
2017-12-10T06:11:36.664Z,2.70
2017-12-10T06:14:10.343Z,2.80
2017-12-10T06:16:44.184Z,2.80
2017-12-10T06:19:17.998Z,2.80
2017-12-10T06:21:52.517Z,2.80
2017-12-10T06:24:27.142Z,2.90
2017-12-10T06:27:01.569Z,3.00
2017-12-10T06:29:36.259Z,3.00
2017-12-10T06:32:10.113Z,3.00
2017-12-10T06:34:43.927Z,3.00
2017-12-10T06:37:18.406Z,3.00
2017-12-10T06:39:52.265Z,3.10
2017-12-10T06:42:26.127Z,3.10
2017-12-10T06:45:01.526Z,3.10
2017-12-10T06:47:35.412Z,3.10
2017-12-10T06:50:09.189Z,3.10
2017-12-10T06:52:43.230Z,3.10
2017-12-10T06:55:17.007Z,3.10
2017-12-10T06:57:51.621Z,3.20
2017-12-10T07:00:25.628Z,3.20
2017-12-10T07:02:59.683Z,3.20
2017-12-10T07:05:34.726Z,3.10
2017-12-10T07:08:09.631Z,3.10
2017-12-10T07:10:43.960Z,3.20
2017-12-10T07:13:18.532Z,3.10
2017-12-10T07:15:53.169Z,3.20
2017-12-10T07:18:26.756Z,3.20
2017-12-10T07:21:01.159Z,3.20
2017-12-10T07:23:34.920Z,3.10
2017-12-10T07:26:08.590Z,3.00
2017-12-10T07:28:42.396Z,3.00
2017-12-10T07:31:16.123Z,3.00
2017-12-10T07:33:49.798Z,3.00
2017-12-10T07:36:23.714Z,3.00
2017-12-10T07:38:57.309Z,3.00
2017-12-10T07:41:31.137Z,2.90
2017-12-10T07:44:04.792Z,2.90
2017-12-10T07:46:38.528Z,2.80
2017-12-10T07:49:13.890Z,2.80
2017-12-10T07:51:47.707Z,2.80
2017-12-10T07:54:22.316Z,2.80
2017-12-10T07:56:56.330Z,2.70
2017-12-10T07:59:30.852Z,2.80
2017-12-10T08:02:04.717Z,2.80
2017-12-10T08:04:38.431Z,2.80
2017-12-10T08:07:12.192Z,2.80
2017-12-10T08:09:46.764Z,5.50
2017-12-10T08:12:20.681Z,3.00
2017-12-10T08:14:55.289Z,3.00
2017-12-10T08:17:28.966Z,3.00
2017-12-10T08:20:02.684Z,3.00
2017-12-10T08:22:37.251Z,3.10
2017-12-10T08:25:10.822Z,3.10
2017-12-10T08:27:44.605Z,4.10
2017-12-10T08:30:19.050Z,3.20
2017-12-10T08:32:53.007Z,3.20
2017-12-10T08:35:27.604Z,3.20
2017-12-10T08:38:01.493Z,3.10
2017-12-10T08:40:35.950Z,3.10
2017-12-10T08:43:10.778Z,3.20
2017-12-10T08:45:44.708Z,3.20
2017-12-10T08:48:18.557Z,3.20
2017-12-10T08:50:52.986Z,3.10
2017-12-10T08:53:26.907Z,3.20
2017-12-10T08:56:00.579Z,3.10
2017-12-10T08:58:35.070Z,3.20
2017-12-10T09:01:09.749Z,3.20
2017-12-10T09:03:43.777Z,3.20
2017-12-10T09:06:18.353Z,3.20
2017-12-10T09:08:52.201Z,3.20
2017-12-10T09:11:27.533Z,3.20
2017-12-10T09:14:01.650Z,3.20
2017-12-10T09:16:36.614Z,3.30
2017-12-10T09:19:11.183Z,3.30
2017-12-10T09:21:45.719Z,3.30
2017-12-10T09:24:19.706Z,3.30
2017-12-10T09:26:53.444Z,3.30
2017-12-10T09:29:27.082Z,3.30
2017-12-10T09:32:01.066Z,3.30
2017-12-10T09:34:36.286Z,3.40
2017-12-10T09:37:10.290Z,3.40
2017-12-10T09:39:44.728Z,3.60
2017-12-10T09:42:18.693Z,3.50
2017-12-10T09:44:52.353Z,3.50
2017-12-10T09:47:26.124Z,3.50
2017-12-10T09:49:59.749Z,3.50
2017-12-10T09:52:33.629Z,3.70
2017-12-10T09:55:08.276Z,3.70
2017-12-10T09:57:41.889Z,3.70
2017-12-10T10:00:15.678Z,3.60
2017-12-10T10:02:49.592Z,3.50
2017-12-10T10:05:24.201Z,3.50
2017-12-10T10:07:58.857Z,3.40
2017-12-10T10:10:32.432Z,3.40
2017-12-10T10:13:06.839Z,3.40
2017-12-10T10:15:40.871Z,3.30
2017-12-10T10:18:14.658Z,3.30
2017-12-10T10:20:48.464Z,3.40
2017-12-10T10:23:22.167Z,3.40
2017-12-10T10:25:56.657Z,3.40
2017-12-10T10:28:30.721Z,3.40
2017-12-10T10:31:04.633Z,3.40
2017-12-10T10:33:39.164Z,3.50
2017-12-10T10:36:13.656Z,3.70
2017-12-10T10:38:47.600Z,3.80
2017-12-10T10:41:21.225Z,3.80
2017-12-10T10:43:55.095Z,3.80
2017-12-10T10:46:28.779Z,3.80
2017-12-10T10:49:03.398Z,3.70
2017-12-10T10:51:37.403Z,3.70
2017-12-10T10:54:11.292Z,3.60
2017-12-10T10:56:46.017Z,3.70
2017-12-10T10:59:20.180Z,3.70
2017-12-10T11:01:53.965Z,3.80
2017-12-10T11:04:27.511Z,3.80
2017-12-10T11:07:01.347Z,3.80
2017-12-10T11:09:35.177Z,3.80
2017-12-10T11:12:08.806Z,3.80
2017-12-10T11:14:42.641Z,3.80
2017-12-10T11:17:16.453Z,3.80
2017-12-10T11:19:50.197Z,3.80
2017-12-10T11:22:23.833Z,3.70
2017-12-10T11:24:58.194Z,3.70
2017-12-10T11:27:32.164Z,3.70
2017-12-10T11:30:05.821Z,3.60
2017-12-10T11:32:39.548Z,3.50
2017-12-10T11:35:14.128Z,3.40
2017-12-10T11:37:48.368Z,3.40
2017-12-10T11:40:22.110Z,3.40
2017-12-10T11:42:57.296Z,3.40
2017-12-10T11:45:31.530Z,3.50
2017-12-10T11:48:05.244Z,3.60
2017-12-10T11:50:38.932Z,3.50
2017-12-10T11:53:13.641Z,3.60
2017-12-10T11:55:48.198Z,3.50
2017-12-10T11:58:23.162Z,3.40
2017-12-10T12:00:58.255Z,3.40
2017-12-10T12:03:32.772Z,3.40
2017-12-10T12:06:07.608Z,3.40
2017-12-10T12:08:41.623Z,3.30
2017-12-10T12:11:16.243Z,3.30
2017-12-10T12:13:50.109Z,3.20
2017-12-10T12:16:23.830Z,3.20
2017-12-10T12:18:57.731Z,3.20
2017-12-10T12:21:31.650Z,3.20
2017-12-10T12:24:05.357Z,3.20
2017-12-10T12:26:39.195Z,3.20
2017-12-10T12:29:13.694Z,3.20
2017-12-10T12:31:48.426Z,3.20
2017-12-10T12:34:23.236Z,3.20
2017-12-10T12:36:58.913Z,3.10
2017-12-10T12:39:33.220Z,3.10
2017-12-10T12:42:07.945Z,3.10
2017-12-10T12:44:42.581Z,3.10
2017-12-10T12:47:17.411Z,3.20
2017-12-10T12:49:51.308Z,3.20
2017-12-10T12:52:25.746Z,3.20
2017-12-10T12:54:59.729Z,3.20
2017-12-10T12:57:34.252Z,3.20
2017-12-10T13:00:08.861Z,3.10
2017-12-10T13:02:42.887Z,3.10
2017-12-10T13:05:16.592Z,3.10
2017-12-10T13:07:50.418Z,3.00
2017-12-10T13:10:24.006Z,3.00
2017-12-10T13:12:58.026Z,3.00
2017-12-10T13:15:32.486Z,3.00
2017-12-10T13:18:06.196Z,3.10
2017-12-10T13:20:40.168Z,3.00
2017-12-10T13:23:14.672Z,3.10
2017-12-10T13:25:48.389Z,3.10
2017-12-10T13:28:22.186Z,3.10
2017-12-10T13:30:55.954Z,3.10
2017-12-10T13:33:30.496Z,3.20
2017-12-10T13:36:04.493Z,3.20
2017-12-10T13:38:38.122Z,3.20
2017-12-10T13:41:11.939Z,3.20
2017-12-10T13:43:46.670Z,3.50
2017-12-10T13:46:21.126Z,3.20
2017-12-10T13:48:55.181Z,3.10
2017-12-10T13:51:29.828Z,3.10
2017-12-10T13:54:04.223Z,3.10
2017-12-10T13:56:39.041Z,3.00
2017-12-10T13:59:13.048Z,3.00
2017-12-10T14:01:46.805Z,3.00
2017-12-10T14:04:21.516Z,3.10
2017-12-10T14:06:55.613Z,3.00
2017-12-10T14:09:29.212Z,3.10
2017-12-10T14:12:02.943Z,3.00
2017-12-10T14:14:37.652Z,2.90
2017-12-10T14:17:12.217Z,2.80
2017-12-10T14:19:45.900Z,2.80
2017-12-10T14:22:19.687Z,2.80
2017-12-10T14:24:53.445Z,2.60
2017-12-10T14:27:27.931Z,2.50
2017-12-10T14:30:01.592Z,2.10
2017-12-10T14:32:35.311Z,2.10
2017-12-10T14:35:10.681Z,1.70
2017-12-10T14:37:44.778Z,1.70
2017-12-10T14:40:19.369Z,1.50
2017-12-10T14:42:53.436Z,1.40
2017-12-10T14:45:28.484Z,1.40
2017-12-10T14:48:02.704Z,1.40
2017-12-10T14:50:37.169Z,1.50
2017-12-10T14:53:11.106Z,1.50
2017-12-10T14:55:45.791Z,1.40
2017-12-10T14:58:19.754Z,1.40
2017-12-10T15:00:54.232Z,1.20
2017-12-10T15:03:28.129Z,1.20
2017-12-10T15:06:01.777Z,1.30
2017-12-10T15:08:36.381Z,1.30
2017-12-10T15:11:10.148Z,1.30
2017-12-10T15:13:43.880Z,1.20
2017-12-10T15:16:17.639Z,1.00
2017-12-10T15:18:51.738Z,-2.70
2017-12-10T15:21:26.033Z,0.90
2017-12-10T15:23:59.730Z,0.90
2017-12-10T15:26:34.424Z,1.00
2017-12-10T15:29:09.081Z,1.00
2017-12-10T15:31:42.692Z,1.00
2017-12-10T15:34:16.396Z,1.00
2017-12-10T15:36:50.981Z,0.90
2017-12-10T15:39:24.887Z,0.90
2017-12-10T15:41:58.500Z,1.10
2017-12-10T15:44:32.322Z,1.10
2017-12-10T15:47:06.821Z,1.10
2017-12-10T15:49:40.879Z,1.10
2017-12-10T15:52:14.496Z,1.00
2017-12-10T15:54:48.280Z,0.90
2017-12-10T15:57:22.837Z,0.90
2017-12-10T15:59:56.593Z,0.90
2017-12-10T16:02:30.349Z,0.90
2017-12-10T16:05:04.013Z,0.90
2017-12-10T16:07:38.408Z,0.80
2017-12-10T16:10:13.853Z,0.80
2017-12-10T16:12:48.937Z,0.80
2017-12-10T16:15:22.891Z,0.80
2017-12-10T16:17:56.528Z,0.80
2017-12-10T16:20:30.456Z,0.80
2017-12-10T16:23:04.340Z,0.70
2017-12-10T16:25:38.029Z,0.70
2017-12-10T16:28:11.625Z,0.60
2017-12-10T16:30:46.097Z,0.70
2017-12-10T16:33:20.083Z,0.70
2017-12-10T16:35:54.625Z,0.60
2017-12-10T16:38:28.727Z,0.60
2017-12-10T16:41:02.499Z,0.50
2017-12-10T16:43:36.420Z,0.50
2017-12-10T16:46:11.015Z,0.50
2017-12-10T16:48:44.828Z,0.50
2017-12-10T16:51:18.516Z,0.50
2017-12-10T16:53:53.116Z,0.60
2017-12-10T16:56:26.865Z,0.60
2017-12-10T16:59:01.592Z,0.60
2017-12-10T17:01:35.503Z,0.60
2017-12-10T17:04:09.194Z,0.60
2017-12-10T17:06:43.579Z,0.60
2017-12-10T17:09:17.612Z,0.60
2017-12-10T17:11:51.215Z,0.60
2017-12-10T17:14:25.726Z,0.50
2017-12-10T17:17:00.359Z,0.50
2017-12-10T17:19:35.193Z,0.50
2017-12-10T17:22:09.187Z,0.50
2017-12-10T17:24:43.668Z,0.50
2017-12-10T17:27:17.532Z,0.50
2017-12-10T17:29:51.694Z,0.60
2017-12-10T17:32:26.585Z,0.50
2017-12-10T17:35:00.455Z,0.50
2017-12-10T17:37:34.249Z,0.40
2017-12-10T17:40:08.688Z,0.50
2017-12-10T17:42:42.661Z,0.60
2017-12-10T17:45:16.444Z,0.50
2017-12-10T17:47:50.069Z,0.60
2017-12-10T17:50:23.824Z,0.60
2017-12-10T17:52:57.788Z,0.60
2017-12-10T17:55:31.425Z,0.60
2017-12-10T17:58:05.982Z,0.60
2017-12-10T18:00:39.990Z,0.60
2017-12-10T18:03:13.634Z,0.60
2017-12-10T18:05:47.518Z,0.60
2017-12-10T18:08:21.966Z,0.60
2017-12-10T18:10:55.938Z,0.60
2017-12-10T18:13:29.475Z,0.60
2017-12-10T18:16:03.451Z,0.60
2017-12-10T18:18:37.098Z,0.70
2017-12-10T18:21:10.703Z,0.70
2017-12-10T18:23:45.225Z,0.70
2017-12-10T18:26:18.976Z,0.70
2017-12-10T18:28:52.653Z,0.70
2017-12-10T18:31:26.274Z,0.70
2017-12-10T18:34:00.802Z,0.70
2017-12-10T18:36:35.526Z,0.80
2017-12-10T18:39:09.298Z,0.80
2017-12-10T18:41:42.861Z,0.80
2017-12-10T18:44:16.438Z,0.80
2017-12-10T18:46:50.220Z,0.80
2017-12-10T18:49:24.697Z,0.80
2017-12-10T18:51:58.574Z,0.80
2017-12-10T18:54:32.276Z,0.90
2017-12-10T18:57:06.070Z,0.90
2017-12-10T18:59:40.580Z,0.90
2017-12-10T19:02:14.505Z,0.90
2017-12-10T19:04:48.968Z,0.80
2017-12-10T19:07:22.911Z,0.90
2017-12-10T19:09:56.607Z,0.80
2017-12-10T19:12:30.276Z,0.80
2017-12-10T19:15:04.024Z,0.80
2017-12-10T19:17:37.662Z,0.80
2017-12-10T19:20:11.282Z,0.90
2017-12-10T19:22:45.085Z,0.90
2017-12-10T19:25:18.902Z,0.90
2017-12-10T19:27:53.446Z,1.00
2017-12-10T19:30:27.388Z,1.00
2017-12-10T19:33:02.086Z,1.10
2017-12-10T19:35:35.951Z,1.10
2017-12-10T19:38:09.803Z,1.10
2017-12-10T19:40:43.525Z,1.10
2017-12-10T19:43:17.336Z,1.20
2017-12-10T19:45:52.037Z,1.30
2017-12-10T19:48:25.806Z,1.20
2017-12-10T19:51:00.245Z,1.30
2017-12-10T19:53:34.310Z,1.20
2017-12-10T19:56:07.876Z,1.30
2017-12-10T19:58:41.486Z,1.40
2017-12-10T20:01:15.307Z,1.40
2017-12-10T20:03:48.946Z,1.50
2017-12-10T20:06:22.719Z,1.50
2017-12-10T20:08:56.476Z,1.60
2017-12-10T20:11:30.322Z,1.60
2017-12-10T20:14:03.999Z,1.70
2017-12-10T20:16:37.836Z,1.70
2017-12-10T20:19:11.538Z,1.80
2017-12-10T20:21:45.952Z,1.90
2017-12-10T20:24:20.547Z,2.00
2017-12-10T20:26:55.305Z,2.00
2017-12-10T20:29:29.215Z,2.00
2017-12-10T20:32:04.554Z,2.10
2017-12-10T20:34:38.465Z,2.10
2017-12-10T20:37:12.491Z,2.20
2017-12-10T20:39:46.127Z,2.30
2017-12-10T20:42:20.089Z,2.40
2017-12-10T20:44:54.612Z,2.40
2017-12-10T20:47:29.189Z,2.60
2017-12-10T20:50:02.896Z,2.60
2017-12-10T20:52:36.853Z,2.70
2017-12-10T20:55:11.356Z,2.80
2017-12-10T20:57:45.049Z,2.80
2017-12-10T21:00:21.329Z,2.90
2017-12-10T21:02:56.682Z,3.00
2017-12-10T21:05:31.300Z,3.10
2017-12-10T21:08:05.074Z,3.10
2017-12-10T21:10:39.013Z,3.10
2017-12-10T21:13:12.701Z,3.20
2017-12-10T21:15:46.545Z,3.20
2017-12-10T21:18:20.122Z,3.30
2017-12-10T21:20:53.732Z,3.40
2017-12-10T21:23:27.570Z,3.40
2017-12-10T21:26:02.144Z,3.50
2017-12-10T21:28:36.059Z,3.50
2017-12-10T21:31:09.908Z,3.60
2017-12-10T21:33:43.777Z,3.60
2017-12-10T21:36:17.582Z,3.70
2017-12-10T21:38:51.183Z,3.70
2017-12-10T21:41:25.100Z,3.80
2017-12-10T21:43:58.691Z,4.80
2017-12-10T21:46:32.476Z,3.80
2017-12-10T21:49:07.004Z,4.00
2017-12-10T21:51:40.953Z,4.00
2017-12-10T21:54:15.424Z,4.10
2017-12-10T21:56:49.439Z,4.10
2017-12-10T21:59:23.203Z,4.10
2017-12-10T22:01:56.866Z,4.20
2017-12-10T22:04:30.520Z,4.20
2017-12-10T22:07:04.473Z,4.20
2017-12-10T22:09:38.387Z,4.20
2017-12-10T22:12:12.056Z,4.30
2017-12-10T22:14:45.848Z,4.30
2017-12-10T22:17:20.188Z,4.40
2017-12-10T22:19:54.070Z,4.40
2017-12-10T22:22:28.525Z,4.50
2017-12-10T22:25:02.484Z,4.40
2017-12-10T22:27:36.347Z,4.50
2017-12-10T22:30:10.869Z,4.50
2017-12-10T22:32:44.596Z,4.50
2017-12-10T22:35:18.311Z,4.50
2017-12-10T22:37:52.748Z,4.40
2017-12-10T22:40:26.830Z,4.40
2017-12-10T22:43:01.177Z,4.40
2017-12-10T22:45:35.343Z,4.40
2017-12-10T22:48:09.290Z,4.30
2017-12-10T22:50:43.067Z,4.30
2017-12-10T22:53:16.786Z,4.30
2017-12-10T22:55:51.272Z,4.20
2017-12-10T22:58:25.273Z,4.20
2017-12-10T23:00:59.109Z,4.20
2017-12-10T23:03:32.932Z,4.20
2017-12-10T23:06:06.735Z,4.20
2017-12-10T23:08:41.121Z,4.20
2017-12-10T23:11:14.972Z,4.20
2017-12-10T23:13:50.352Z,4.20
2017-12-10T23:16:31.944Z,4.20
2017-12-10T23:19:06.280Z,4.20
2017-12-10T23:21:40.009Z,4.30
2017-12-10T23:24:13.708Z,4.30
2017-12-10T23:26:48.200Z,4.30
2017-12-10T23:29:21.846Z,4.30
2017-12-10T23:31:55.489Z,4.30
2017-12-10T23:34:29.896Z,4.40
2017-12-10T23:37:04.551Z,4.40
2017-12-10T23:39:39.172Z,4.40
2017-12-10T23:42:13.151Z,4.40
2017-12-10T23:44:47.729Z,4.40
2017-12-10T23:47:21.774Z,4.40
2017-12-10T23:49:56.469Z,4.50
2017-12-10T23:52:30.995Z,4.50
2017-12-10T23:55:05.753Z,4.50
2017-12-10T23:57:40.712Z,4.50
